Terminal Aerodrome Forecast
Issued by NWS

Home | Current Version | Previous Version | Text Only | Print | Product List | Glossary Off
Versions: 1 2 3 4 5 6 7 8 9 10 11 12 13 14 15 16 17 18 19 20 21 22

322
FTUS43 KMPX 200520
TAFRNH
TAF
KRNH 200520Z 2006/2106 13004KT 6SM -SHRA BR SCT015 OVC040
     FM200900 13003KT 4SM -SHRA BR OVC012
     FM201200 13004KT 2SM -DZ BR OVC007
     FM201400 12003KT 2SM -DZ BR OVC005
     FM201600 13005KT 3SM BR OVC003=

USA.gov is the U.S. government's official web portal to all federal, state and local government web resources and services.